Time;durP1;ratioP1;P1;durP2;ratioP2;P2;SDS_P1;SDS_P2;PMS_P1;PMS_P2;Temp;Humidity;BMP_temperature;BMP_pressure;BME280_temperature;BME280_humidity;BME280_pressure;Samples;Min_cycle;Max_cycle;Signal;HPM_P1;HPM_P2
2023/08/30 00:02:00;;;;;;;4.22;1.88;;;15.80;99.90;;;;;;2586023;54;20796;31
2023/08/30 00:04:33;;;;;;;4.43;1.92;;;15.80;99.90;;;;;;2586121;54;20888;31
2023/08/30 00:07:06;;;;;;;4.28;1.63;;;15.80;99.90;;;;;;2586019;54;20870;31
2023/08/30 00:09:39;;;;;;;3.20;1.80;;;15.80;99.90;;;;;;2585705;54;20872;31
2023/08/30 00:12:14;;;;;;;4.53;1.60;;;15.80;99.90;;;;;;2604614;46;20910;31
2023/08/30 00:14:48;;;;;;;1.90;1.50;;;15.80;99.90;;;;;;2585901;54;20038;31
2023/08/30 00:17:22;;;;;;;3.45;1.65;;;15.80;99.90;;;;;;2585980;54;20031;31
2023/08/30 00:19:55;;;;;;;4.55;1.30;;;15.80;99.90;;;;;;2604320;46;20064;31
2023/08/30 00:22:27;;;;;;;2.15;1.08;;;15.80;99.90;;;;;;2604606;46;20026;31
2023/08/30 00:24:58;;;;;;;2.53;1.50;;;15.80;99.90;;;;;;2604408;46;20026;31
2023/08/30 00:27:35;;;;;;;1.40;0.85;;;15.80;99.90;;;;;;2585901;54;20050;31
2023/08/30 00:30:09;;;;;;;3.25;1.30;;;15.80;99.90;;;;;;2585857;54;20034;31
2023/08/30 00:32:40;;;;;;;1.75;1.00;;;15.70;99.90;;;;;;2585813;54;20733;31
2023/08/30 00:35:18;;;;;;;1.75;1.10;;;15.70;99.90;;;;;;2585889;54;20033;31
2023/08/30 00:37:50;;;;;;;3.23;1.13;;;15.80;99.90;;;;;;2585826;54;20783;31
2023/08/30 00:40:26;;;;;;;2.80;0.95;;;15.70;99.90;;;;;;2586090;54;20258;31
2023/08/30 00:43:00;;;;;;;3.47;0.80;;;15.70;99.90;;;;;;2585680;54;20027;31
2023/08/30 00:45:35;;;;;;;2.35;0.85;;;15.70;99.90;;;;;;2604160;46;21233;31
2023/08/30 00:48:08;;;;;;;1.10;0.65;;;15.70;99.90;;;;;;2585978;54;20038;31
2023/08/30 00:50:42;;;;;;;1.58;0.63;;;15.70;99.90;;;;;;2585993;54;20116;31
2023/08/30 00:53:16;;;;;;;2.60;0.63;;;15.70;99.90;;;;;;2603604;47;20911;31
2023/08/30 00:55:48;;;;;;;1.20;0.70;;;15.70;99.90;;;;;;2585939;54;20022;31
2023/08/30 00:58:26;;;;;;;1.92;1.05;;;15.70;99.90;;;;;;2585763;54;20089;31
2023/08/30 01:00:58;;;;;;;1.73;0.65;;;15.70;99.90;;;;;;2604110;47;19934;31
2023/08/30 01:03:32;;;;;;;4.60;0.70;;;15.70;99.90;;;;;;2585863;54;20874;31
2023/08/30 01:06:03;;;;;;;1.33;0.90;;;15.70;99.90;;;;;;2585758;54;20238;31
2023/08/30 01:08:36;;;;;;;2.58;1.08;;;15.60;99.90;;;;;;2585837;54;20912;31
2023/08/30 01:11:12;;;;;;;1.60;0.80;;;15.60;99.90;;;;;;2585714;54;20045;31
2023/08/30 01:13:49;;;;;;;2.00;0.93;;;15.60;99.90;;;;;;2604112;47;20031;31
2023/08/30 01:16:24;;;;;;;3.13;1.17;;;15.60;99.90;;;;;;2585894;54;20035;31
2023/08/30 01:18:57;;;;;;;;;;;15.60;99.90;;;;;;2604460;47;20030;31
2023/08/30 01:21:35;;;;;;;1.90;0.82;;;15.60;99.90;;;;;;2586731;54;20698;31
2023/08/30 01:24:10;;;;;;;1.98;1.23;;;15.50;99.90;;;;;;2586550;54;20027;31
2023/08/30 01:26:45;;;;;;;1.05;0.80;;;15.50;99.90;;;;;;2586662;54;20757;31
2023/08/30 01:29:19;;;;;;;4.05;0.68;;;15.50;99.90;;;;;;2586621;54;20032;31
2023/08/30 01:31:54;;;;;;;3.47;1.30;;;15.50;99.90;;;;;;2586515;54;20029;31
2023/08/30 01:34:28;;;;;;;3.33;1.20;;;15.60;99.90;;;;;;2586424;54;20033;31
2023/08/30 01:37:03;;;;;;;4.47;0.95;;;15.60;99.90;;;;;;2586440;54;20922;31
2023/08/30 01:39:35;;;;;;;1.60;1.02;;;15.60;99.90;;;;;;2586587;54;20026;31
2023/08/30 01:42:07;;;;;;;2.45;1.40;;;15.60;99.90;;;;;;2605194;46;20034;31
2023/08/30 01:44:44;;;;;;;2.92;1.15;;;15.60;99.90;;;;;;2604898;46;20971;31
2023/08/30 01:47:19;;;;;;;6.35;1.20;;;15.60;99.90;;;;;;2586410;54;20076;31
2023/08/30 01:49:50;;;;;;;2.22;1.35;;;15.60;99.90;;;;;;2586573;54;20042;31
2023/08/30 01:52:25;;;;;;;1.90;0.98;;;15.60;99.90;;;;;;2605133;46;20042;31
2023/08/30 01:54:58;;;;;;;2.15;1.20;;;15.50;99.90;;;;;;2604622;46;20033;31
2023/08/30 01:57:30;;;;;;;2.92;1.08;;;15.50;99.90;;;;;;2586234;54;20031;31
2023/08/30 02:00:05;;;;;;;2.97;1.00;;;15.50;99.90;;;;;;2586222;54;20032;31
2023/08/30 02:02:46;;;;;;;2.30;0.75;;;15.60;99.90;;;;;;2586622;54;20265;31
2023/08/30 02:05:19;;;;;;;1.45;1.00;;;15.50;99.90;;;;;;2604642;46;20089;31
2023/08/30 02:07:53;;;;;;;1.65;0.85;;;15.50;99.90;;;;;;2586312;54;20058;31
2023/08/30 02:10:28;;;;;;;1.20;0.60;;;15.50;99.90;;;;;;2586312;54;20957;31
2023/08/30 02:13:00;;;;;;;2.03;0.70;;;15.50;99.90;;;;;;2586430;54;20033;31
2023/08/30 02:15:34;;;;;;;1.13;0.65;;;15.50;99.90;;;;;;2586385;54;20033;31
2023/08/30 02:18:07;;;;;;;0.90;0.40;;;15.50;99.90;;;;;;2586410;54;20026;31
2023/08/30 02:20:41;;;;;;;3.13;0.60;;;15.50;99.90;;;;;;2604678;46;20767;31
2023/08/30 02:23:16;;;;;;;2.08;0.40;;;15.50;99.90;;;;;;2586234;54;20030;31
2023/08/30 02:25:47;;;;;;;0.88;0.50;;;15.50;99.90;;;;;;2586566;54;20740;31
2023/08/30 02:28:22;;;;;;;2.28;0.80;;;15.50;99.90;;;;;;2586632;54;20757;31
2023/08/30 02:30:56;;;;;;;1.13;0.60;;;15.50;99.90;;;;;;2585806;54;20859;31
2023/08/30 02:33:30;;;;;;;0.90;0.50;;;15.50;99.90;;;;;;2586444;54;19934;31
2023/08/30 02:36:05;;;;;;;1.15;0.63;;;15.50;99.90;;;;;;2586399;54;20023;31
2023/08/30 02:38:37;;;;;;;8.13;0.77;;;15.50;99.90;;;;;;2586612;54;20859;31
2023/08/30 02:41:10;;;;;;;2.43;0.60;;;15.40;99.90;;;;;;2586246;54;20026;31
2023/08/30 02:43:43;;;;;;;5.68;0.60;;;15.40;99.90;;;;;;2604494;46;20266;31
2023/08/30 02:46:18;;;;;;;0.60;0.40;;;15.40;99.90;;;;;;2586392;54;20026;31
2023/08/30 02:48:52;;;;;;;1.58;0.70;;;15.40;99.90;;;;;;2605272;46;20894;31
2023/08/30 02:51:26;;;;;;;1.25;0.60;;;15.40;99.90;;;;;;2604988;46;20045;31
2023/08/30 02:53:58;;;;;;;1.20;0.50;;;15.40;99.90;;;;;;2586239;54;20085;31
2023/08/30 02:56:35;;;;;;;0.88;0.40;;;15.40;99.90;;;;;;2586376;54;20866;31
2023/08/30 02:59:08;;;;;;;3.28;0.50;;;15.40;99.90;;;;;;2604621;46;20013;31
2023/08/30 03:01:43;;;;;;;1.20;0.47;;;15.40;99.90;;;;;;2586286;54;20027;31
2023/08/30 03:04:18;;;;;;;1.75;0.60;;;15.40;99.90;;;;;;2585875;54;20038;31
2023/08/30 03:06:49;;;;;;;0.88;0.47;;;15.40;99.90;;;;;;2586341;54;20729;31
2023/08/30 03:09:22;;;;;;;1.05;0.50;;;15.40;99.90;;;;;;2586375;54;20910;31
2023/08/30 03:11:53;;;;;;;0.82;0.50;;;15.40;99.90;;;;;;2586339;54;20030;31
2023/08/30 03:14:27;;;;;;;3.20;0.50;;;15.40;99.90;;;;;;2604628;46;20026;31
2023/08/30 03:17:04;;;;;;;1.07;0.70;;;15.40;99.90;;;;;;2604712;46;20095;31
2023/08/30 03:19:36;;;;;;;1.80;0.60;;;15.40;99.90;;;;;;2586336;54;20042;31
2023/08/30 03:22:09;;;;;;;1.27;0.70;;;15.40;99.90;;;;;;2586123;54;20842;31
2023/08/30 03:24:41;;;;;;;1.43;0.70;;;15.40;99.90;;;;;;2586106;54;20927;31
2023/08/30 03:27:14;;;;;;;2.60;0.90;;;15.40;99.90;;;;;;2585962;54;20901;31
2023/08/30 03:29:48;;;;;;;1.95;1.00;;;15.40;99.90;;;;;;2702126;39;20683;31
2023/08/30 03:32:24;;;;;;;1.30;0.90;;;15.40;99.90;;;;;;2586165;54;20031;31
2023/08/30 03:34:57;;;;;;;3.80;1.17;;;15.30;99.90;;;;;;2586217;54;20037;31
2023/08/30 03:37:30;;;;;;;2.42;1.20;;;15.30;99.90;;;;;;2585894;54;20036;31
2023/08/30 03:40:04;;;;;;;1.58;0.73;;;15.30;99.90;;;;;;2586173;54;20033;31
2023/08/30 03:42:36;;;;;;;1.23;0.80;;;15.30;99.90;;;;;;2585967;54;20764;31
2023/08/30 03:45:09;;;;;;;1.13;0.63;;;15.20;99.90;;;;;;2586060;54;20869;31
2023/08/30 03:47:45;;;;;;;1.40;0.90;;;15.20;99.90;;;;;;2586174;54;20026;31
2023/08/30 03:50:20;;;;;;;1.90;0.98;;;15.20;99.90;;;;;;2586126;54;20054;31
2023/08/30 03:52:51;;;;;;;2.42;1.00;;;15.20;99.90;;;;;;2585956;54;20038;31
2023/08/30 03:55:24;;;;;;;1.55;0.90;;;15.20;99.90;;;;;;2586181;54;20998;31
2023/08/30 03:57:56;;;;;;;1.80;0.70;;;15.20;99.90;;;;;;2585926;54;20878;31
2023/08/30 04:00:28;;;;;;;2.15;0.98;;;15.20;99.90;;;;;;2586010;54;20781;31
2023/08/30 04:03:02;;;;;;;2.50;0.80;;;15.20;99.90;;;;;;2604662;46;20157;31
2023/08/30 04:05:37;;;;;;;1.60;0.70;;;15.20;99.90;;;;;;2585931;54;20050;31
2023/08/30 04:08:09;;;;;;;3.90;0.80;;;15.20;99.90;;;;;;2585878;54;20077;31
2023/08/30 04:10:47;;;;;;;3.15;0.85;;;15.20;99.90;;;;;;2604416;46;20409;31
2023/08/30 04:13:20;;;;;;;1.75;1.00;;;15.20;99.90;;;;;;2585822;54;20030;31
2023/08/30 04:15:52;;;;;;;2.35;0.90;;;15.20;99.90;;;;;;2586001;54;20967;31
2023/08/30 04:18:26;;;;;;;2.80;1.20;;;15.20;99.90;;;;;;2585923;54;20853;31
2023/08/30 04:21:02;;;;;;;1.40;0.70;;;15.20;99.90;;;;;;2585883;54;20124;31
2023/08/30 04:23:34;;;;;;;2.67;1.10;;;15.20;99.90;;;;;;2585764;54;20957;31
2023/08/30 04:26:09;;;;;;;2.75;0.98;;;15.20;99.90;;;;;;2604180;46;20885;31
2023/08/30 04:28:42;;;;;;;5.10;1.35;;;15.20;99.90;;;;;;2586052;54;20033;31
2023/08/30 04:31:15;;;;;;;2.30;0.80;;;15.20;99.90;;;;;;2586165;54;20027;31
2023/08/30 04:33:52;;;;;;;1.75;0.85;;;15.20;99.90;;;;;;2585828;54;20293;31
2023/08/30 04:36:25;;;;;;;1.80;0.90;;;15.20;99.90;;;;;;2604500;46;20034;31
2023/08/30 04:38:57;;;;;;;2.40;1.20;;;15.20;99.90;;;;;;2585798;54;20905;31
2023/08/30 04:41:38;;;;;;;1.95;0.70;;;15.20;99.90;;;;;;2586076;54;20237;31
2023/08/30 04:44:10;;;;;;;2.15;0.98;;;15.20;99.90;;;;;;2585938;54;20685;31
2023/08/30 04:46:43;;;;;;;1.53;0.80;;;15.20;99.90;;;;;;2604048;46;20161;31
2023/08/30 04:49:17;;;;;;;1.65;0.85;;;15.20;99.90;;;;;;2585759;54;20743;31
2023/08/30 04:51:50;;;;;;;0.60;0.50;;;15.20;99.90;;;;;;2585824;54;20033;31
2023/08/30 04:54:22;;;;;;;1.40;0.70;;;15.20;99.90;;;;;;2586063;54;20961;31
2023/08/30 04:56:54;;;;;;;1.47;0.80;;;15.20;99.90;;;;;;2586721;54;20863;31
2023/08/30 04:59:32;;;;;;;2.70;0.90;;;15.20;99.90;;;;;;2605415;46;20235;31
2023/08/30 05:02:04;;;;;;;0.90;0.50;;;15.10;99.90;;;;;;2586746;54;20930;31
2023/08/30 05:04:42;;;;;;;2.77;0.67;;;15.20;99.90;;;;;;2604888;46;20881;31
2023/08/30 05:07:17;;;;;;;1.15;0.70;;;15.20;99.90;;;;;;2586386;54;20239;31
2023/08/30 05:09:51;;;;;;;3.10;0.70;;;15.20;99.90;;;;;;2604779;46;20086;31
2023/08/30 05:12:23;;;;;;;2.28;0.50;;;15.20;99.90;;;;;;2605541;46;20053;31
2023/08/30 05:14:55;;;;;;;1.77;0.70;;;15.20;99.90;;;;;;2605214;46;20034;31
2023/08/30 05:17:29;;;;;;;1.77;0.60;;;15.20;99.90;;;;;;2604965;46;20061;31
2023/08/30 05:20:06;;;;;;;1.63;0.47;;;15.20;99.90;;;;;;2604724;46;20055;31
2023/08/30 05:22:41;;;;;;;0.80;0.40;;;15.20;99.90;;;;;;2586642;54;20768;31
2023/08/30 05:25:13;;;;;;;2.00;0.60;;;15.20;99.90;;;;;;2605068;46;20026;31
2023/08/30 05:27:46;;;;;;;1.33;0.40;;;15.20;99.90;;;;;;2586520;54;19941;31
2023/08/30 05:30:18;;;;;;;1.15;0.45;;;15.30;99.90;;;;;;2586452;54;20034;31
2023/08/30 05:32:51;;;;;;;2.28;0.70;;;15.30;99.90;;;;;;2586781;54;20970;31
2023/08/30 05:35:44;;;;;;;1.25;0.50;;;15.30;99.90;;;;;;2586699;54;20927;31
2023/08/30 05:38:42;;;;;;;1.30;0.60;;;15.30;99.90;;;;;;2586224;54;20032;31
2023/08/30 05:41:47;;;;;;;1.92;0.70;;;15.30;99.90;;;;;;2586209;54;20026;31
2023/08/30 05:44:19;;;;;;;1.05;0.70;;;15.30;99.90;;;;;;2605054;46;20941;31
2023/08/30 05:46:51;;;;;;;1.08;0.68;;;15.30;99.90;;;;;;2586615;54;20022;31
2023/08/30 05:49:23;;;;;;;2.20;0.50;;;15.40;99.90;;;;;;2586339;54;20049;31
2023/08/30 05:51:58;;;;;;;1.60;0.60;;;15.40;99.90;;;;;;2586722;54;20026;31
2023/08/30 05:54:31;;;;;;;2.37;0.67;;;15.50;99.90;;;;;;2586436;54;20042;31
2023/08/30 05:57:03;;;;;;;1.07;0.50;;;15.50;99.90;;;;;;2586266;54;21092;31
2023/08/30 05:59:35;;;;;;;0.70;0.40;;;15.50;99.90;;;;;;2586418;54;20045;31
2023/08/30 06:02:09;;;;;;;1.10;0.45;;;15.60;99.90;;;;;;2586203;54;20027;31
2023/08/30 06:04:43;;;;;;;0.55;0.30;;;15.60;99.90;;;;;;2604832;46;20031;31
2023/08/30 06:07:17;;;;;;;0.63;0.30;;;15.60;99.90;;;;;;2605003;46;20076;31
2023/08/30 06:09:49;;;;;;;1.90;0.40;;;15.60;99.90;;;;;;2586226;54;20037;31
2023/08/30 06:12:21;;;;;;;1.38;0.35;;;15.70;99.90;;;;;;2605079;46;20974;31
2023/08/30 06:14:54;;;;;;;0.80;0.40;;;15.60;99.90;;;;;;2586660;54;20030;31
2023/08/30 06:17:26;;;;;;;0.83;0.40;;;15.70;99.90;;;;;;2586248;54;20030;31
2023/08/30 06:19:58;;;;;;;0.70;0.50;;;15.80;99.90;;;;;;2586509;54;20085;31
2023/08/30 06:22:32;;;;;;;1.15;0.40;;;15.80;99.90;;;;;;2586277;54;20844;31
2023/08/30 06:25:07;;;;;;;0.73;0.30;;;15.80;99.90;;;;;;2586348;54;19942;31
2023/08/30 06:27:44;;;;;;;0.50;0.30;;;15.80;99.90;;;;;;2586133;54;20847;31
2023/08/30 06:30:16;;;;;;;0.60;0.30;;;15.80;99.90;;;;;;2586294;54;20885;31
2023/08/30 06:32:51;;;;;;;0.30;0.20;;;15.80;99.90;;;;;;2586059;54;19941;31
2023/08/30 06:35:23;;;;;;;0.32;0.20;;;15.90;99.90;;;;;;2586421;54;20983;31
2023/08/30 06:37:58;;;;;;;0.32;0.30;;;15.90;99.90;;;;;;2586182;54;20085;31
2023/08/30 06:40:33;;;;;;;3.08;0.25;;;15.90;99.90;;;;;;2604529;46;20026;31
2023/08/30 06:43:05;;;;;;;0.30;0.20;;;15.90;99.90;;;;;;2586342;54;20109;31
2023/08/30 06:45:37;;;;;;;1.10;0.20;;;15.90;99.90;;;;;;2586259;54;20970;31
2023/08/30 06:48:10;;;;;;;0.47;0.20;;;16.00;99.90;;;;;;2604698;46;20967;31
2023/08/30 06:50:44;;;;;;;0.60;0.10;;;16.00;99.90;;;;;;2604773;46;20031;31
2023/08/30 06:53:18;;;;;;;2.33;0.20;;;16.00;99.90;;;;;;2586279;54;20808;31
2023/08/30 06:56:00;;;;;;;0.40;0.20;;;16.10;99.90;;;;;;2586183;54;20026;31
2023/08/30 06:58:33;;;;;;;0.60;0.20;;;16.10;99.90;;;;;;2586249;54;20915;31
2023/08/30 07:01:05;;;;;;;0.82;0.40;;;16.10;99.90;;;;;;2586378;54;20766;31
2023/08/30 07:03:40;;;;;;;0.30;0.20;;;16.10;99.90;;;;;;2586054;54;20902;31
2023/08/30 07:06:13;;;;;;;1.48;0.20;;;16.10;99.90;;;;;;2586324;54;20036;31
2023/08/30 07:08:48;;;;;;;0.95;0.10;;;16.10;99.90;;;;;;2586174;54;20903;31
2023/08/30 07:11:21;;;;;;;;;;;16.10;99.90;;;;;;2604775;46;19935;31
2023/08/30 07:14:05;;;;;;;0.43;0.20;;;16.10;99.90;;;;;;2586042;54;19989;31
2023/08/30 07:16:37;;;;;;;0.35;0.20;;;16.20;99.90;;;;;;2586146;54;20877;31
2023/08/30 07:19:09;;;;;;;0.10;0.10;;;16.20;99.90;;;;;;2586384;54;20703;31
2023/08/30 07:21:44;;;;;;;2.20;0.20;;;16.30;99.90;;;;;;2604600;46;20034;31
2023/08/30 07:24:22;;;;;;;0.50;0.20;;;16.30;99.90;;;;;;2586376;54;20801;31
2023/08/30 07:26:54;;;;;;;0.30;0.13;;;16.30;99.90;;;;;;2586088;54;20860;31
2023/08/30 07:29:26;;;;;;;0.85;0.30;;;16.30;99.90;;;;;;2586117;54;19935;31
2023/08/30 07:31:59;;;;;;;0.13;0.10;;;16.20;99.90;;;;;;2586077;54;20029;31
2023/08/30 07:34:31;;;;;;;0.30;0.20;;;16.20;99.90;;;;;;2586278;54;20913;31
2023/08/30 07:37:04;;;;;;;0.50;0.25;;;16.10;99.90;;;;;;2585966;54;20741;31
2023/08/30 07:39:39;;;;;;;0.25;0.17;;;16.10;99.90;;;;;;2586007;54;20922;31
2023/08/30 07:42:11;;;;;;;0.70;0.20;;;16.10;99.90;;;;;;2604767;46;20912;31
2023/08/30 07:44:41;;;;;;;0.47;0.20;;;16.10;99.90;;;;;;2585952;54;20032;31
2023/08/30 07:47:14;;;;;;;0.10;0.10;;;16.10;99.90;;;;;;2585994;54;20038;31
2023/08/30 07:49:47;;;;;;;1.40;0.10;;;16.10;99.90;;;;;;2586100;54;20069;31
2023/08/30 07:52:19;;;;;;;0.20;0.10;;;16.10;99.90;;;;;;2586201;54;20783;31
2023/08/30 07:55:15;;;;;;;0.52;0.20;;;16.10;99.90;;;;;;2586013;54;20030;31
2023/08/30 07:57:47;;;;;;;0.20;0.10;;;16.10;99.90;;;;;;2586031;54;20875;31
2023/08/30 08:00:20;;;;;;;1.70;0.20;;;16.10;99.90;;;;;;2586141;54;20030;31
2023/08/30 08:02:55;;;;;;;0.20;0.10;;;16.10;99.90;;;;;;2586040;54;20026;31
2023/08/30 08:05:27;;;;;;;0.10;0.10;;;16.10;99.90;;;;;;2585874;54;20037;31
2023/08/30 08:08:02;;;;;;;1.20;0.13;;;16.10;99.90;;;;;;2585517;54;20026;31
2023/08/30 08:10:37;;;;;;;0.20;0.20;;;16.10;99.90;;;;;;2586005;54;20759;31
2023/08/30 08:13:12;;;;;;;0.13;0.05;;;16.10;99.90;;;;;;2586175;54;20249;31
2023/08/30 08:15:45;;;;;;;0.45;0.10;;;16.20;99.90;;;;;;2585908;54;20951;31
2023/08/30 08:18:17;;;;;;;0.82;0.30;;;16.20;99.90;;;;;;2604328;46;20057;31
2023/08/30 08:20:49;;;;;;;0.47;0.25;;;16.20;99.90;;;;;;2585930;54;20153;31
2023/08/30 08:23:21;;;;;;;0.55;0.30;;;16.20;99.90;;;;;;2585869;54;20030;31
2023/08/30 08:26:16;;;;;;;0.60;0.47;;;16.20;99.90;;;;;;2586177;54;20752;31
2023/08/30 08:28:49;;;;;;;0.75;0.50;;;16.30;99.90;;;;;;2585401;54;20945;31
2023/08/30 08:31:22;;;;;;;0.85;0.45;;;16.30;99.90;;;;;;2604427;46;20085;31
2023/08/30 08:33:54;;;;;;;0.80;0.55;;;16.30;99.90;;;;;;2585958;54;20892;31
2023/08/30 08:36:27;;;;;;;0.57;0.50;;;16.30;99.90;;;;;;2585997;54;20827;31
2023/08/30 08:39:19;;;;;;;0.80;0.40;;;16.30;99.90;;;;;;2604517;46;20038;31
2023/08/30 08:41:57;;;;;;;0.90;0.50;;;16.30;99.90;;;;;;2746210;31;20057;31
2023/08/30 08:44:34;;;;;;;0.60;0.40;;;16.30;99.90;;;;;;2604273;46;21118;31
2023/08/30 08:47:07;;;;;;;0.85;0.60;;;16.30;99.90;;;;;;2585756;54;21341;31
2023/08/30 08:49:40;;;;;;;0.80;0.50;;;16.30;99.90;;;;;;2701782;39;20321;31
2023/08/30 08:52:13;;;;;;;0.77;0.40;;;16.20;99.90;;;;;;2604409;46;20052;31
2023/08/30 08:55:04;;;;;;;0.80;0.60;;;16.20;99.90;;;;;;2585949;54;20031;31
2023/08/30 08:57:39;;;;;;;0.80;0.50;;;16.20;99.90;;;;;;2604051;47;21217;31
2023/08/30 09:00:16;;;;;;;0.77;0.50;;;16.20;99.90;;;;;;2585898;54;20026;31
2023/08/30 09:02:51;;;;;;;1.15;0.40;;;16.20;99.90;;;;;;2585833;54;20057;31
2023/08/30 09:05:24;;;;;;;2.85;0.40;;;16.30;99.90;;;;;;2585903;54;20869;31
2023/08/30 09:07:57;;;;;;;1.57;0.30;;;16.30;99.90;;;;;;2683441;39;22338;31
2023/08/30 09:10:29;;;;;;;1.80;0.40;;;16.30;99.90;;;;;;2585775;54;20313;31
2023/08/30 09:13:07;;;;;;;1.07;0.30;;;16.30;99.90;;;;;;2603924;47;20026;31
2023/08/30 09:15:39;;;;;;;0.47;0.30;;;16.30;99.90;;;;;;2585782;54;20929;31
2023/08/30 09:18:18;;;;;;;0.70;0.30;;;16.30;99.90;;;;;;2603883;47;20054;31
2023/08/30 09:20:53;;;;;;;0.65;0.45;;;16.30;99.90;;;;;;2585726;54;20084;31
2023/08/30 09:23:25;;;;;;;0.63;0.30;;;16.30;99.90;;;;;;2604363;47;20064;31
2023/08/30 09:25:57;;;;;;;0.57;0.40;;;16.30;99.90;;;;;;2585848;54;20242;31
2023/08/30 09:28:34;;;;;;;1.20;0.40;;;16.20;99.90;;;;;;2585787;54;20030;31
2023/08/30 09:31:09;;;;;;;1.35;0.20;;;16.20;99.90;;;;;;2603749;47;20920;31
2023/08/30 09:33:56;;;;;;;0.60;0.40;;;16.20;99.90;;;;;;2585750;54;20882;31
2023/08/30 09:36:31;;;;;;;0.77;0.38;;;16.20;99.90;;;;;;2585623;54;20973;31
2023/08/30 09:39:05;;;;;;;0.70;0.30;;;16.20;99.90;;;;;;2585926;54;20876;31
2023/08/30 09:41:40;;;;;;;0.60;0.20;;;16.20;99.90;;;;;;2586412;54;20035;31
2023/08/30 09:44:15;;;;;;;0.47;0.20;;;16.30;99.90;;;;;;2586399;54;20062;31
2023/08/30 09:46:49;;;;;;;0.30;0.10;;;16.30;99.90;;;;;;2586435;54;20885;31
2023/08/30 09:49:24;;;;;;;3.60;0.20;;;16.40;99.90;;;;;;2586600;54;20030;31
2023/08/30 09:51:59;;;;;;;0.50;0.35;;;16.40;99.90;;;;;;2605307;46;20810;31
2023/08/30 09:54:31;;;;;;;0.40;0.20;;;16.50;99.90;;;;;;2586522;54;20026;31
2023/08/30 09:57:11;;;;;;;0.20;0.10;;;16.50;99.90;;;;;;2586274;54;20889;31
2023/08/30 09:59:45;;;;;;;0.98;0.30;;;16.60;99.90;;;;;;2586287;54;20757;31
2023/08/30 10:02:17;;;;;;;0.43;0.30;;;16.70;99.90;;;;;;2604916;46;20909;31
2023/08/30 10:04:49;;;;;;;0.80;0.50;;;16.70;99.90;;;;;;2586456;54;20889;31
2023/08/30 10:07:22;;;;;;;0.85;0.60;;;16.60;99.90;;;;;;2586709;54;21185;31
2023/08/30 10:09:55;;;;;;;0.30;0.20;;;16.60;99.90;;;;;;2586458;54;20771;31
2023/08/30 10:12:36;;;;;;;3.60;0.40;;;16.60;99.90;;;;;;2604855;46;20908;31
2023/08/30 10:15:10;;;;;;;1.60;0.50;;;16.70;99.90;;;;;;2586522;54;20030;31
2023/08/30 10:17:43;;;;;;;0.32;0.28;;;16.70;99.90;;;;;;2585723;54;20057;31
2023/08/30 10:20:15;;;;;;;0.47;0.30;;;16.80;99.90;;;;;;2586297;54;20758;31
2023/08/30 10:22:48;;;;;;;0.30;0.20;;;16.80;99.90;;;;;;2605211;46;20057;31
2023/08/30 10:25:22;;;;;;;0.80;0.40;;;16.80;99.90;;;;;;2605199;46;20033;31
2023/08/30 10:27:54;;;;;;;1.20;0.50;;;16.80;99.90;;;;;;2586537;54;20970;31
2023/08/30 10:30:30;;;;;;;3.80;0.80;;;16.80;99.90;;;;;;2586301;54;20026;31
2023/08/30 10:33:05;;;;;;;1.60;0.70;;;16.80;99.90;;;;;;2604667;46;20058;31
2023/08/30 10:35:51;;;;;;;1.00;0.50;;;16.80;99.90;;;;;;2586412;54;21086;31
2023/08/30 10:38:38;;;;;;;2.77;1.13;;;16.90;99.90;;;;;;2586127;54;20036;31
2023/08/30 10:41:10;;;;;;;1.42;0.70;;;16.90;99.90;;;;;;2586407;54;20034;31
2023/08/30 10:43:43;;;;;;;0.77;0.60;;;16.90;99.90;;;;;;2586123;54;20119;31
2023/08/30 10:46:18;;;;;;;1.90;1.00;;;16.90;99.90;;;;;;2586271;54;20060;31
2023/08/30 10:48:51;;;;;;;1.10;0.80;;;16.90;99.90;;;;;;2586196;54;20157;31
2023/08/30 10:51:24;;;;;;;2.50;1.45;;;17.00;99.90;;;;;;2585993;54;20023;31
2023/08/30 10:53:59;;;;;;;1.50;1.10;;;17.00;99.90;;;;;;2604844;47;20034;31
2023/08/30 10:56:35;;;;;;;4.80;1.30;;;17.00;99.90;;;;;;2586142;54;20766;31
2023/08/30 10:59:07;;;;;;;2.35;1.50;;;17.00;99.90;;;;;;2586153;54;20057;31
2023/08/30 11:01:42;;;;;;;3.05;2.00;;;17.10;99.90;;;;;;2586372;54;20026;31
2023/08/30 11:04:19;;;;;;;2.65;1.70;;;17.10;99.90;;;;;;2585364;54;20038;31
2023/08/30 11:06:51;;;;;;;3.40;2.30;;;17.10;99.90;;;;;;2586206;54;20053;31
2023/08/30 11:09:27;;;;;;;3.07;2.23;;;17.20;99.90;;;;;;2586199;54;20049;31
2023/08/30 11:11:59;;;;;;;2.55;1.85;;;17.10;99.90;;;;;;2586154;54;20061;31
2023/08/30 11:14:32;;;;;;;2.83;1.65;;;17.00;99.90;;;;;;2604582;46;20868;31
2023/08/30 11:17:08;;;;;;;4.75;1.80;;;17.00;99.90;;;;;;2586109;54;20030;31
2023/08/30 11:19:41;;;;;;;3.13;2.00;;;17.00;99.90;;;;;;2586242;54;20055;31
2023/08/30 11:22:16;;;;;;;2.42;1.77;;;17.10;99.90;;;;;;2586364;54;20030;31
2023/08/30 11:24:50;;;;;;;1.60;1.30;;;17.30;99.90;;;;;;2586193;54;20034;31
2023/08/30 11:27:23;;;;;;;2.17;1.00;;;17.40;99.90;;;;;;2585699;54;20027;31
2023/08/30 11:29:56;;;;;;;1.00;0.70;;;17.60;99.90;;;;;;2585259;54;20944;31
2023/08/30 11:32:34;;;;;;;2.80;1.00;;;17.70;99.90;;;;;;2604530;46;20033;31
2023/08/30 11:35:07;;;;;;;1.70;1.30;;;17.90;99.90;;;;;;2586012;54;20967;31
2023/08/30 11:37:39;;;;;;;1.85;1.50;;;18.00;99.90;;;;;;2586077;54;20980;31
2023/08/30 11:40:12;;;;;;;2.70;1.40;;;18.20;99.90;;;;;;2586046;54;20064;31
2023/08/30 11:42:44;;;;;;;2.15;1.58;;;18.30;99.90;;;;;;2585977;54;20761;31
2023/08/30 11:45:18;;;;;;;2.15;1.65;;;18.40;99.90;;;;;;2585938;54;20037;31
2023/08/30 11:47:53;;;;;;;3.50;2.58;;;18.50;99.90;;;;;;2586177;54;20033;31
2023/08/30 11:50:28;;;;;;;5.15;2.53;;;18.50;99.90;;;;;;2604550;46;20085;31
2023/08/30 11:53:10;;;;;;;5.45;2.45;;;18.50;99.90;;;;;;2586085;54;20153;31
2023/08/30 11:55:43;;;;;;;2.55;2.35;;;18.40;99.90;;;;;;2586133;54;20775;31
2023/08/30 11:58:19;;;;;;;1.77;1.10;;;18.30;99.90;;;;;;2586091;54;19941;31
2023/08/30 12:00:54;;;;;;;0.82;0.57;;;18.20;99.90;;;;;;2586015;54;20093;31
2023/08/30 12:03:30;;;;;;;0.50;0.40;;;18.10;99.90;;;;;;2585886;54;20152;31
2023/08/30 12:06:02;;;;;;;0.95;0.50;;;18.00;99.90;;;;;;2586064;54;20910;31
2023/08/30 12:08:37;;;;;;;0.43;0.30;;;17.90;99.90;;;;;;2604178;46;20905;31
2023/08/30 12:11:19;;;;;;;0.60;0.40;;;17.90;99.90;;;;;;2604111;46;20865;31
2023/08/30 12:13:51;;;;;;;0.30;0.28;;;17.70;99.90;;;;;;2585928;54;20030;31
2023/08/30 12:16:24;;;;;;;0.50;0.30;;;17.70;99.90;;;;;;2604477;46;20868;31
2023/08/30 12:19:10;;;;;;;1.15;0.30;;;17.60;99.90;;;;;;2585954;54;20038;31
2023/08/30 12:21:44;;;;;;;0.60;0.43;;;17.60;99.90;;;;;;2585757;54;20835;31
2023/08/30 12:24:17;;;;;;;1.00;0.35;;;17.70;99.90;;;;;;2586015;54;20900;31
2023/08/30 12:26:49;;;;;;;0.45;0.22;;;17.80;99.90;;;;;;2586125;54;20154;31
2023/08/30 12:29:21;;;;;;;1.30;0.30;;;17.90;99.90;;;;;;2585710;54;20855;31
2023/08/30 12:31:56;;;;;;;0.40;0.30;;;18.00;99.90;;;;;;2585698;54;20230;31
2023/08/30 12:34:30;;;;;;;0.50;0.30;;;18.20;99.90;;;;;;2585853;54;20067;31
2023/08/30 12:37:02;;;;;;;0.70;0.40;;;18.30;99.90;;;;;;2585985;54;20030;31
2023/08/30 12:39:37;;;;;;;1.10;0.47;;;18.30;99.90;;;;;;2586107;54;20745;31
2023/08/30 12:42:10;;;;;;;1.60;0.30;;;18.40;99.90;;;;;;2585849;54;21038;31
2023/08/30 12:44:43;;;;;;;0.20;0.20;;;18.40;99.90;;;;;;2585961;54;20026;31
2023/08/30 12:47:16;;;;;;;0.50;0.30;;;18.40;99.90;;;;;;2585980;54;20501;31
2023/08/30 12:49:51;;;;;;;0.50;0.30;;;18.30;99.90;;;;;;2585927;54;20026;31
2023/08/30 12:52:24;;;;;;;0.30;0.30;;;18.20;99.90;;;;;;2585644;54;20916;31
2023/08/30 12:54:57;;;;;;;0.57;0.20;;;18.10;99.90;;;;;;2586153;54;20030;31
2023/08/30 12:57:30;;;;;;;0.50;0.30;;;18.10;99.90;;;;;;2585937;54;20029;31
2023/08/30 13:00:02;;;;;;;0.50;0.30;;;18.00;99.90;;;;;;2585793;54;20109;31
2023/08/30 13:02:34;;;;;;;0.30;0.10;;;18.00;99.90;;;;;;2585340;54;20097;31
2023/08/30 13:05:10;;;;;;;0.90;0.20;;;18.00;99.90;;;;;;2683667;39;20383;31
2023/08/30 13:07:42;;;;;;;0.55;0.20;;;18.00;99.90;;;;;;2604397;47;20061;31
2023/08/30 13:10:14;;;;;;;0.90;0.20;;;18.10;99.90;;;;;;2585776;54;20026;31
2023/08/30 13:12:46;;;;;;;0.50;0.20;;;18.10;99.90;;;;;;2585981;54;20851;31
2023/08/30 13:15:19;;;;;;;0.47;0.27;;;18.10;99.90;;;;;;2604128;47;20108;31
2023/08/30 13:17:52;;;;;;;1.10;0.20;;;18.10;99.90;;;;;;2586608;54;20030;31
2023/08/30 13:20:26;;;;;;;0.82;0.30;;;18.10;99.90;;;;;;2586620;54;20905;31
2023/08/30 13:23:01;;;;;;;0.38;0.22;;;18.00;99.90;;;;;;2586636;54;20030;31
2023/08/30 13:25:33;;;;;;;0.47;0.25;;;17.90;99.90;;;;;;2586461;54;20031;31
2023/08/30 13:28:05;;;;;;;0.40;0.20;;;17.80;99.90;;;;;;2586448;54;20927;31
2023/08/30 13:30:37;;;;;;;0.60;0.20;;;17.90;99.90;;;;;;2586573;54;20896;31
2023/08/30 13:33:11;;;;;;;0.30;0.20;;;17.90;99.90;;;;;;2586687;54;20946;31
2023/08/30 13:35:46;;;;;;;0.50;0.20;;;18.00;99.90;;;;;;2586394;54;20301;31